sensor_id;sensor_type;location;lat;lon;timestamp;temperature;humidity
5200;DHT22;2619;47.868;11.892;2023-02-15T00:01:18;-1.80;99.90
5200;DHT22;2619;47.868;11.892;2023-02-15T00:03:43;-1.90;99.90
5200;DHT22;2619;47.868;11.892;2023-02-15T00:06:09;-2.00;99.90
5200;DHT22;2619;47.868;11.892;2023-02-15T00:08:34;-1.90;99.90
5200;DHT22;2619;47.868;11.892;2023-02-15T00:11:07;-1.80;99.90
5200;DHT22;2619;47.868;11.892;2023-02-15T00:13:34;-1.80;99.90
5200;DHT22;2619;47.868;11.892;2023-02-15T00:16:06;-1.80;99.90
5200;DHT22;2619;47.868;11.892;2023-02-15T00:18:32;-1.80;99.90
5200;DHT22;2619;47.868;11.892;2023-02-15T00:21:02;-1.80;99.90
5200;DHT22;2619;47.868;11.892;2023-02-15T00:23:28;-1.80;99.90
5200;DHT22;2619;47.868;11.892;2023-02-15T00:26:03;-1.80;99.90
5200;DHT22;2619;47.868;11.892;2023-02-15T00:28:30;-1.80;99.90
5200;DHT22;2619;47.868;11.892;2023-02-15T00:31:09;-1.90;99.90
5200;DHT22;2619;47.868;11.892;2023-02-15T00:33:35;-1.90;99.90
5200;DHT22;2619;47.868;11.892;2023-02-15T00:36:03;-1.90;99.90
5200;DHT22;2619;47.868;11.892;2023-02-15T00:38:30;-1.70;99.90
5200;DHT22;2619;47.868;11.892;2023-02-15T00:41:00;-1.70;99.90
5200;DHT22;2619;47.868;11.892;2023-02-15T00:43:27;-1.70;99.90
5200;DHT22;2619;47.868;11.892;2023-02-15T00:45:53;-1.60;99.90
5200;DHT22;2619;47.868;11.892;2023-02-15T00:48:20;-1.60;99.90
5200;DHT22;2619;47.868;11.892;2023-02-15T00:50:46;-1.70;99.90
5200;DHT22;2619;47.868;11.892;2023-02-15T00:53:13;-1.70;99.90
5200;DHT22;2619;47.868;11.892;2023-02-15T00:55:39;-1.70;99.90
5200;DHT22;2619;47.868;11.892;2023-02-15T00:58:06;-1.60;99.90
5200;DHT22;2619;47.868;11.892;2023-02-15T01:00:32;-1.60;99.90
5200;DHT22;2619;47.868;11.892;2023-02-15T01:02:58;-1.60;99.90
5200;DHT22;2619;47.868;11.892;2023-02-15T01:05:23;-1.60;99.90
5200;DHT22;2619;47.868;11.892;2023-02-15T01:07:49;-1.50;99.90
5200;DHT22;2619;47.868;11.892;2023-02-15T01:10:15;-1.50;99.90
5200;DHT22;2619;47.868;11.892;2023-02-15T01:12:40;-1.50;99.90
5200;DHT22;2619;47.868;11.892;2023-02-15T01:15:06;-1.50;99.90
5200;DHT22;2619;47.868;11.892;2023-02-15T01:17:32;-1.50;99.90
5200;DHT22;2619;47.868;11.892;2023-02-15T01:19:58;-1.50;99.90
5200;DHT22;2619;47.868;11.892;2023-02-15T01:22:25;-1.60;99.90
5200;DHT22;2619;47.868;11.892;2023-02-15T01:24:50;-1.60;99.90
5200;DHT22;2619;47.868;11.892;2023-02-15T01:27:16;-1.50;99.90
5200;DHT22;2619;47.868;11.892;2023-02-15T01:29:42;-1.50;99.90
5200;DHT22;2619;47.868;11.892;2023-02-15T01:32:07;-1.50;99.90
5200;DHT22;2619;47.868;11.892;2023-02-15T01:34:33;-1.50;99.90
5200;DHT22;2619;47.868;11.892;2023-02-15T01:36:58;-1.50;99.90
5200;DHT22;2619;47.868;11.892;2023-02-15T01:39:24;-1.50;99.90
5200;DHT22;2619;47.868;11.892;2023-02-15T01:41:50;-1.40;99.90
5200;DHT22;2619;47.868;11.892;2023-02-15T01:47:12;-1.40;99.90
5200;DHT22;2619;47.868;11.892;2023-02-15T01:49:40;-1.40;99.90
5200;DHT22;2619;47.868;11.892;2023-02-15T01:52:09;-1.60;99.90
5200;DHT22;2619;47.868;11.892;2023-02-15T01:54:38;-1.60;99.90
5200;DHT22;2619;47.868;11.892;2023-02-15T01:57:10;-1.60;99.90
5200;DHT22;2619;47.868;11.892;2023-02-15T01:59:39;-1.60;99.90
5200;DHT22;2619;47.868;11.892;2023-02-15T02:02:07;-1.70;99.90
5200;DHT22;2619;47.868;11.892;2023-02-15T02:04:41;-1.70;99.90
5200;DHT22;2619;47.868;11.892;2023-02-15T02:07:09;-1.70;99.90
5200;DHT22;2619;47.868;11.892;2023-02-15T02:09:37;-1.70;99.90
5200;DHT22;2619;47.868;11.892;2023-02-15T02:12:03;-1.70;99.90
5200;DHT22;2619;47.868;11.892;2023-02-15T02:14:29;-1.70;99.90
5200;DHT22;2619;47.868;11.892;2023-02-15T02:17:17;-1.70;99.90
5200;DHT22;2619;47.868;11.892;2023-02-15T02:25:41;-1.80;99.90
5200;DHT22;2619;47.868;11.892;2023-02-15T02:34:25;-1.70;99.90
5200;DHT22;2619;47.868;11.892;2023-02-15T02:36:59;-1.80;99.90
5200;DHT22;2619;47.868;11.892;2023-02-15T02:39:55;-1.90;99.90
5200;DHT22;2619;47.868;11.892;2023-02-15T02:42:40;-1.90;99.90
5200;DHT22;2619;47.868;11.892;2023-02-15T02:45:10;-1.90;99.90
5200;DHT22;2619;47.868;11.892;2023-02-15T02:50:12;-1.90;99.90
5200;DHT22;2619;47.868;11.892;2023-02-15T02:57:54;-1.80;99.90
5200;DHT22;2619;47.868;11.892;2023-02-15T03:00:24;-1.80;99.90
5200;DHT22;2619;47.868;11.892;2023-02-15T03:02:54;-1.70;99.90
5200;DHT22;2619;47.868;11.892;2023-02-15T03:05:26;-1.70;99.90
5200;DHT22;2619;47.868;11.892;2023-02-15T03:07:53;-1.70;99.90
5200;DHT22;2619;47.868;11.892;2023-02-15T03:10:22;-1.50;99.90
5200;DHT22;2619;47.868;11.892;2023-02-15T03:12:49;-1.50;99.90
5200;DHT22;2619;47.868;11.892;2023-02-15T03:15:24;-1.50;99.90
5200;DHT22;2619;47.868;11.892;2023-02-15T03:18:00;-1.40;99.90
5200;DHT22;2619;47.868;11.892;2023-02-15T03:20:35;-1.40;99.90
5200;DHT22;2619;47.868;11.892;2023-02-15T03:23:04;-1.40;99.90
5200;DHT22;2619;47.868;11.892;2023-02-15T03:25:38;-1.40;99.90
5200;DHT22;2619;47.868;11.892;2023-02-15T03:28:15;-1.50;99.90
5200;DHT22;2619;47.868;11.892;2023-02-15T03:30:44;-1.50;99.90
5200;DHT22;2619;47.868;11.892;2023-02-15T03:33:11;-1.60;99.90
5200;DHT22;2619;47.868;11.892;2023-02-15T03:39:03;-1.60;99.90
5200;DHT22;2619;47.868;11.892;2023-02-15T03:41:36;-1.50;99.90
5200;DHT22;2619;47.868;11.892;2023-02-15T03:44:10;-1.60;99.90
5200;DHT22;2619;47.868;11.892;2023-02-15T03:49:27;-1.60;99.90
5200;DHT22;2619;47.868;11.892;2023-02-15T03:51:56;-1.60;99.90
5200;DHT22;2619;47.868;11.892;2023-02-15T03:54:27;-1.60;99.90
5200;DHT22;2619;47.868;11.892;2023-02-15T03:57:27;-1.60;99.90
5200;DHT22;2619;47.868;11.892;2023-02-15T04:00:18;-1.60;99.90
5200;DHT22;2619;47.868;11.892;2023-02-15T04:03:17;-1.50;99.90
5200;DHT22;2619;47.868;11.892;2023-02-15T04:05:46;-1.40;99.90
5200;DHT22;2619;47.868;11.892;2023-02-15T04:08:12;-1.40;99.90
5200;DHT22;2619;47.868;11.892;2023-02-15T04:10:38;-1.50;99.90
5200;DHT22;2619;47.868;11.892;2023-02-15T04:13:30;-1.50;99.90
5200;DHT22;2619;47.868;11.892;2023-02-15T04:15:56;-1.40;99.90
5200;DHT22;2619;47.868;11.892;2023-02-15T04:21:16;-1.50;99.90
5200;DHT22;2619;47.868;11.892;2023-02-15T04:24:00;-1.50;99.90
5200;DHT22;2619;47.868;11.892;2023-02-15T04:26:44;-1.60;99.90
5200;DHT22;2619;47.868;11.892;2023-02-15T04:29:11;-1.70;99.90
5200;DHT22;2619;47.868;11.892;2023-02-15T04:31:36;-1.70;99.90
5200;DHT22;2619;47.868;11.892;2023-02-15T04:34:02;-1.60;99.90
5200;DHT22;2619;47.868;11.892;2023-02-15T04:36:27;-1.70;99.90
5200;DHT22;2619;47.868;11.892;2023-02-15T04:38:53;-1.70;99.90
5200;DHT22;2619;47.868;11.892;2023-02-15T04:41:19;-1.70;99.90
5200;DHT22;2619;47.868;11.892;2023-02-15T04:43:44;-1.80;99.90
5200;DHT22;2619;47.868;11.892;2023-02-15T04:46:10;-1.90;99.90
5200;DHT22;2619;47.868;11.892;2023-02-15T04:48:35;-1.90;99.90
5200;DHT22;2619;47.868;11.892;2023-02-15T04:51:05;-2.00;99.90
5200;DHT22;2619;47.868;11.892;2023-02-15T04:53:32;-2.00;99.90
5200;DHT22;2619;47.868;11.892;2023-02-15T04:55:57;-2.10;99.90
5200;DHT22;2619;47.868;11.892;2023-02-15T04:58:23;-2.10;99.90
5200;DHT22;2619;47.868;11.892;2023-02-15T05:00:49;-2.10;99.90
5200;DHT22;2619;47.868;11.892;2023-02-15T05:03:14;-2.20;99.90
5200;DHT22;2619;47.868;11.892;2023-02-15T05:05:40;-2.20;99.90
5200;DHT22;2619;47.868;11.892;2023-02-15T05:08:05;-2.30;99.90
5200;DHT22;2619;47.868;11.892;2023-02-15T05:10:31;-2.30;99.90
5200;DHT22;2619;47.868;11.892;2023-02-15T05:12:57;-2.40;99.90
5200;DHT22;2619;47.868;11.892;2023-02-15T05:15:22;-2.40;99.90
5200;DHT22;2619;47.868;11.892;2023-02-15T05:17:48;-2.40;99.90
5200;DHT22;2619;47.868;11.892;2023-02-15T05:20:13;-2.50;99.90
5200;DHT22;2619;47.868;11.892;2023-02-15T05:22:39;-2.60;99.90
5200;DHT22;2619;47.868;11.892;2023-02-15T05:25:06;-2.60;99.90
5200;DHT22;2619;47.868;11.892;2023-02-15T05:27:50;-2.70;99.90
5200;DHT22;2619;47.868;11.892;2023-02-15T05:30:34;-2.80;99.90
5200;DHT22;2619;47.868;11.892;2023-02-15T05:33:00;-2.80;99.90
5200;DHT22;2619;47.868;11.892;2023-02-15T05:35:25;-2.90;99.90
5200;DHT22;2619;47.868;11.892;2023-02-15T05:37:51;-2.80;99.90
5200;DHT22;2619;47.868;11.892;2023-02-15T05:40:16;-2.90;99.90
5200;DHT22;2619;47.868;11.892;2023-02-15T05:42:42;-2.90;99.90
5200;DHT22;2619;47.868;11.892;2023-02-15T05:45:08;-2.90;99.90
5200;DHT22;2619;47.868;11.892;2023-02-15T05:47:33;-2.90;99.90
5200;DHT22;2619;47.868;11.892;2023-02-15T05:49:59;-2.90;99.90
5200;DHT22;2619;47.868;11.892;2023-02-15T05:52:25;-2.90;99.90
5200;DHT22;2619;47.868;11.892;2023-02-15T05:54:50;-2.90;99.90
5200;DHT22;2619;47.868;11.892;2023-02-15T05:57:16;-3.00;99.90
5200;DHT22;2619;47.868;11.892;2023-02-15T05:59:41;-3.00;99.90
5200;DHT22;2619;47.868;11.892;2023-02-15T06:02:07;-2.90;99.90
5200;DHT22;2619;47.868;11.892;2023-02-15T06:04:33;-2.90;99.90
5200;DHT22;2619;47.868;11.892;2023-02-15T06:06:58;-2.80;99.90
5200;DHT22;2619;47.868;11.892;2023-02-15T06:09:24;-2.90;99.90
5200;DHT22;2619;47.868;11.892;2023-02-15T06:11:49;-2.70;99.90
5200;DHT22;2619;47.868;11.892;2023-02-15T06:14:15;-2.70;99.90
5200;DHT22;2619;47.868;11.892;2023-02-15T06:16:40;-2.70;99.90
5200;DHT22;2619;47.868;11.892;2023-02-15T06:19:06;-2.60;99.90
5200;DHT22;2619;47.868;11.892;2023-02-15T06:21:32;-2.60;99.90
5200;DHT22;2619;47.868;11.892;2023-02-15T06:23:57;-2.70;99.90
5200;DHT22;2619;47.868;11.892;2023-02-15T06:26:23;-2.70;99.90
5200;DHT22;2619;47.868;11.892;2023-02-15T06:28:48;-2.70;99.90
5200;DHT22;2619;47.868;11.892;2023-02-15T06:31:14;-2.70;99.90
5200;DHT22;2619;47.868;11.892;2023-02-15T06:33:40;-2.60;99.90
5200;DHT22;2619;47.868;11.892;2023-02-15T06:36:06;-2.50;99.90
5200;DHT22;2619;47.868;11.892;2023-02-15T06:38:32;-2.40;99.90
5200;DHT22;2619;47.868;11.892;2023-02-15T06:40:57;-2.40;99.90
5200;DHT22;2619;47.868;11.892;2023-02-15T06:43:23;-2.50;99.90
5200;DHT22;2619;47.868;11.892;2023-02-15T06:45:48;-2.60;99.90
5200;DHT22;2619;47.868;11.892;2023-02-15T06:48:14;-2.70;99.90
5200;DHT22;2619;47.868;11.892;2023-02-15T06:50:40;-2.60;99.90
5200;DHT22;2619;47.868;11.892;2023-02-15T06:53:06;-2.50;99.90
5200;DHT22;2619;47.868;11.892;2023-02-15T06:55:31;-2.40;99.90
5200;DHT22;2619;47.868;11.892;2023-02-15T06:57:57;-2.30;99.90
5200;DHT22;2619;47.868;11.892;2023-02-15T07:00:23;-2.30;99.90
5200;DHT22;2619;47.868;11.892;2023-02-15T07:02:53;-2.20;99.90
5200;DHT22;2619;47.868;11.892;2023-02-15T07:05:21;-2.20;99.90
5200;DHT22;2619;47.868;11.892;2023-02-15T07:07:47;-2.20;99.90
5200;DHT22;2619;47.868;11.892;2023-02-15T07:10:12;-2.10;99.90
5200;DHT22;2619;47.868;11.892;2023-02-15T07:12:38;-2.00;99.90
5200;DHT22;2619;47.868;11.892;2023-02-15T07:15:08;-1.90;99.90
5200;DHT22;2619;47.868;11.892;2023-02-15T07:17:35;-1.80;99.90
5200;DHT22;2619;47.868;11.892;2023-02-15T07:20:05;-1.80;99.90
5200;DHT22;2619;47.868;11.892;2023-02-15T07:22:31;-1.70;99.90
5200;DHT22;2619;47.868;11.892;2023-02-15T07:24:59;-1.60;99.90
5200;DHT22;2619;47.868;11.892;2023-02-15T07:27:24;-1.60;99.90
5200;DHT22;2619;47.868;11.892;2023-02-15T07:29:50;-1.70;99.90
5200;DHT22;2619;47.868;11.892;2023-02-15T07:32:15;-1.90;99.90
5200;DHT22;2619;47.868;11.892;2023-02-15T07:34:41;-1.90;99.90
5200;DHT22;2619;47.868;11.892;2023-02-15T07:37:07;-1.90;99.90
5200;DHT22;2619;47.868;11.892;2023-02-15T07:39:32;-1.80;99.90
5200;DHT22;2619;47.868;11.892;2023-02-15T07:42:00;-1.80;99.90
5200;DHT22;2619;47.868;11.892;2023-02-15T07:44:25;-1.80;99.90
5200;DHT22;2619;47.868;11.892;2023-02-15T07:46:51;-1.70;99.90
5200;DHT22;2619;47.868;11.892;2023-02-15T07:49:18;-1.60;99.90
5200;DHT22;2619;47.868;11.892;2023-02-15T07:51:43;-1.60;99.90
5200;DHT22;2619;47.868;11.892;2023-02-15T07:54:09;-1.70;99.90
5200;DHT22;2619;47.868;11.892;2023-02-15T07:56:34;-1.70;99.90
5200;DHT22;2619;47.868;11.892;2023-02-15T07:59:00;-1.70;99.90
5200;DHT22;2619;47.868;11.892;2023-02-15T08:01:33;-1.70;99.90
5200;DHT22;2619;47.868;11.892;2023-02-15T08:04:00;-1.70;99.90
5200;DHT22;2619;47.868;11.892;2023-02-15T08:06:28;-1.70;99.90
5200;DHT22;2619;47.868;11.892;2023-02-15T08:08:54;-1.70;99.90
5200;DHT22;2619;47.868;11.892;2023-02-15T08:11:25;-1.60;99.90
5200;DHT22;2619;47.868;11.892;2023-02-15T08:14:05;-1.50;99.90
5200;DHT22;2619;47.868;11.892;2023-02-15T08:16:33;-1.30;99.90
5200;DHT22;2619;47.868;11.892;2023-02-15T08:19:02;-1.20;99.90
5200;DHT22;2619;47.868;11.892;2023-02-15T08:21:29;-1.10;99.90
5200;DHT22;2619;47.868;11.892;2023-02-15T08:23:55;-0.80;99.90
5200;DHT22;2619;47.868;11.892;2023-02-15T08:26:22;-0.70;99.90
5200;DHT22;2619;47.868;11.892;2023-02-15T08:28:48;-0.60;99.90
5200;DHT22;2619;47.868;11.892;2023-02-15T08:31:16;-0.50;99.90
5200;DHT22;2619;47.868;11.892;2023-02-15T08:33:44;-0.40;99.90
5200;DHT22;2619;47.868;11.892;2023-02-15T08:36:13;-0.50;99.90
5200;DHT22;2619;47.868;11.892;2023-02-15T08:38:39;-0.30;99.90
5200;DHT22;2619;47.868;11.892;2023-02-15T08:41:17;0.00;99.90
5200;DHT22;2619;47.868;11.892;2023-02-15T08:43:45;-0.20;99.90
5200;DHT22;2619;47.868;11.892;2023-02-15T08:46:12;-0.40;99.90
5200;DHT22;2619;47.868;11.892;2023-02-15T08:48:39;-0.50;99.90
5200;DHT22;2619;47.868;11.892;2023-02-15T08:53:39;-0.40;99.90
5200;DHT22;2619;47.868;11.892;2023-02-15T08:56:05;-0.20;99.90
5200;DHT22;2619;47.868;11.892;2023-02-15T08:58:31;-0.10;99.90
5200;DHT22;2619;47.868;11.892;2023-02-15T09:00:57;-0.10;99.90
5200;DHT22;2619;47.868;11.892;2023-02-15T09:03:23;0.00;99.90
5200;DHT22;2619;47.868;11.892;2023-02-15T09:05:49;0.00;99.90
5200;DHT22;2619;47.868;11.892;2023-02-15T09:08:15;0.20;99.90
5200;DHT22;2619;47.868;11.892;2023-02-15T09:10:40;0.00;99.90
5200;DHT22;2619;47.868;11.892;2023-02-15T09:13:06;0.10;99.90
5200;DHT22;2619;47.868;11.892;2023-02-15T09:15:32;0.30;99.90
5200;DHT22;2619;47.868;11.892;2023-02-15T09:17:58;0.50;99.90
5200;DHT22;2619;47.868;11.892;2023-02-15T09:20:31;0.50;99.90
5200;DHT22;2619;47.868;11.892;2023-02-15T09:22:57;0.60;99.90
5200;DHT22;2619;47.868;11.892;2023-02-15T09:25:22;1.00;99.90
5200;DHT22;2619;47.868;11.892;2023-02-15T09:27:48;1.20;99.90
5200;DHT22;2619;47.868;11.892;2023-02-15T09:30:13;1.20;99.90
5200;DHT22;2619;47.868;11.892;2023-02-15T09:32:40;1.50;99.90
5200;DHT22;2619;47.868;11.892;2023-02-15T09:35:05;1.60;99.90
5200;DHT22;2619;47.868;11.892;2023-02-15T09:37:31;1.80;99.90
5200;DHT22;2619;47.868;11.892;2023-02-15T09:39:57;2.10;99.90
5200;DHT22;2619;47.868;11.892;2023-02-15T09:47:48;1.90;99.90
5200;DHT22;2619;47.868;11.892;2023-02-15T09:50:52;2.10;99.90
5200;DHT22;2619;47.868;11.892;2023-02-15T09:53:38;2.70;99.90
5200;DHT22;2619;47.868;11.892;2023-02-15T09:56:52;3.20;99.90
5200;DHT22;2619;47.868;11.892;2023-02-15T10:01:54;3.20;99.90
5200;DHT22;2619;47.868;11.892;2023-02-15T10:10:05;3.10;99.90
5200;DHT22;2619;47.868;11.892;2023-02-15T10:18:30;3.10;99.90
5200;DHT22;2619;47.868;11.892;2023-02-15T10:24:09;3.20;99.90
5200;DHT22;2619;47.868;11.892;2023-02-15T10:26:42;3.60;99.90
5200;DHT22;2619;47.868;11.892;2023-02-15T10:29:09;4.00;99.90
5200;DHT22;2619;47.868;11.892;2023-02-15T10:31:51;4.40;99.90
5200;DHT22;2619;47.868;11.892;2023-02-15T10:40:10;4.40;99.90
5200;DHT22;2619;47.868;11.892;2023-02-15T10:42:28;4.20;99.90
5200;DHT22;2619;47.868;11.892;2023-02-15T10:45:23;3.90;99.90
5200;DHT22;2619;47.868;11.892;2023-02-15T10:51:10;3.00;99.90
5200;DHT22;2619;47.868;11.892;2023-02-15T11:00:13;2.40;99.90
5200;DHT22;2619;47.868;11.892;2023-02-15T11:05:42;2.40;99.90
5200;DHT22;2619;47.868;11.892;2023-02-15T11:08:14;2.20;99.90
5200;DHT22;2619;47.868;11.892;2023-02-15T11:10:48;2.00;99.90
5200;DHT22;2619;47.868;11.892;2023-02-15T11:13:18;2.10;99.90
5200;DHT22;2619;47.868;11.892;2023-02-15T11:16:02;2.30;99.90
5200;DHT22;2619;47.868;11.892;2023-02-15T11:18:39;2.60;99.90
5200;DHT22;2619;47.868;11.892;2023-02-15T11:21:28;2.80;99.90
5200;DHT22;2619;47.868;11.892;2023-02-15T11:23:55;2.90;99.90
5200;DHT22;2619;47.868;11.892;2023-02-15T11:26:26;3.00;99.90
5200;DHT22;2619;47.868;11.892;2023-02-15T11:29:15;3.00;99.90
5200;DHT22;2619;47.868;11.892;2023-02-15T11:31:46;3.00;99.90
5200;DHT22;2619;47.868;11.892;2023-02-15T11:34:29;3.10;99.90
5200;DHT22;2619;47.868;11.892;2023-02-15T11:37:01;3.00;99.90
5200;DHT22;2619;47.868;11.892;2023-02-15T11:39:31;3.10;99.90
5200;DHT22;2619;47.868;11.892;2023-02-15T11:42:01;3.30;99.90
5200;DHT22;2619;47.868;11.892;2023-02-15T11:44:54;3.40;99.90
5200;DHT22;2619;47.868;11.892;2023-02-15T11:47:21;3.50;99.90
5200;DHT22;2619;47.868;11.892;2023-02-15T11:49:47;3.70;99.90
5200;DHT22;2619;47.868;11.892;2023-02-15T11:52:15;3.90;99.90
5200;DHT22;2619;47.868;11.892;2023-02-15T11:54:44;4.00;99.90
5200;DHT22;2619;47.868;11.892;2023-02-15T11:57:23;4.20;99.90
5200;DHT22;2619;47.868;11.892;2023-02-15T12:00:00;4.40;99.90
5200;DHT22;2619;47.868;11.892;2023-02-15T12:02:28;4.40;99.90
5200;DHT22;2619;47.868;11.892;2023-02-15T12:05:12;4.40;99.90
5200;DHT22;2619;47.868;11.892;2023-02-15T12:08:02;4.60;99.90
5200;DHT22;2619;47.868;11.892;2023-02-15T12:10:34;4.60;99.90
5200;DHT22;2619;47.868;11.892;2023-02-15T12:13:21;4.70;99.90
5200;DHT22;2619;47.868;11.892;2023-02-15T12:15:50;4.80;99.90
5200;DHT22;2619;47.868;11.892;2023-02-15T12:18:37;4.90;99.90
5200;DHT22;2619;47.868;11.892;2023-02-15T12:21:08;5.10;99.90
5200;DHT22;2619;47.868;11.892;2023-02-15T12:23:52;5.20;99.90
5200;DHT22;2619;47.868;11.892;2023-02-15T12:26:30;5.30;99.90
5200;DHT22;2619;47.868;11.892;2023-02-15T12:29:16;5.40;99.90
5200;DHT22;2619;47.868;11.892;2023-02-15T12:31:45;5.50;99.90
5200;DHT22;2619;47.868;11.892;2023-02-15T12:34:24;5.50;99.90
5200;DHT22;2619;47.868;11.892;2023-02-15T12:36:53;5.70;99.90
5200;DHT22;2619;47.868;11.892;2023-02-15T12:39:25;5.80;99.90
5200;DHT22;2619;47.868;11.892;2023-02-15T12:45:19;6.00;99.90
5200;DHT22;2619;47.868;11.892;2023-02-15T12:47:18;5.90;99.90
5200;DHT22;2619;47.868;11.892;2023-02-15T12:49:45;5.90;99.90
5200;DHT22;2619;47.868;11.892;2023-02-15T12:52:28;6.00;99.90
5200;DHT22;2619;47.868;11.892;2023-02-15T12:54:54;6.10;99.90
5200;DHT22;2619;47.868;11.892;2023-02-15T12:57:32;6.10;99.90
5200;DHT22;2619;47.868;11.892;2023-02-15T13:02:47;6.20;99.90
5200;DHT22;2619;47.868;11.892;2023-02-15T13:05:18;6.20;99.90
5200;DHT22;2619;47.868;11.892;2023-02-15T13:07:56;6.30;99.90
5200;DHT22;2619;47.868;11.892;2023-02-15T13:12:56;6.30;99.90
5200;DHT22;2619;47.868;11.892;2023-02-15T13:15:46;6.30;99.90
5200;DHT22;2619;47.868;11.892;2023-02-15T13:18:16;6.30;99.90
5200;DHT22;2619;47.868;11.892;2023-02-15T13:20:46;6.30;99.90
5200;DHT22;2619;47.868;11.892;2023-02-15T13:23:42;6.30;99.90
5200;DHT22;2619;47.868;11.892;2023-02-15T13:26:17;6.40;99.90
5200;DHT22;2619;47.868;11.892;2023-02-15T13:28:49;6.50;99.90
5200;DHT22;2619;47.868;11.892;2023-02-15T13:31:23;6.50;99.90
5200;DHT22;2619;47.868;11.892;2023-02-15T13:34:01;6.50;99.90
5200;DHT22;2619;47.868;11.892;2023-02-15T13:36:41;6.40;99.90
5200;DHT22;2619;47.868;11.892;2023-02-15T13:39:14;6.40;99.90
5200;DHT22;2619;47.868;11.892;2023-02-15T13:47:22;6.40;99.90
5200;DHT22;2619;47.868;11.892;2023-02-15T13:50:02;6.50;99.90
5200;DHT22;2619;47.868;11.892;2023-02-15T13:52:34;6.50;99.90
5200;DHT22;2619;47.868;11.892;2023-02-15T13:58:05;6.50;99.90
5200;DHT22;2619;47.868;11.892;2023-02-15T14:17:52;6.50;99.90
5200;DHT22;2619;47.868;11.892;2023-02-15T14:20:39;6.50;99.90
5200;DHT22;2619;47.868;11.892;2023-02-15T14:26:22;6.30;99.90
5200;DHT22;2619;47.868;11.892;2023-02-15T14:28:51;6.10;99.90
5200;DHT22;2619;47.868;11.892;2023-02-15T14:31:26;6.10;99.90
5200;DHT22;2619;47.868;11.892;2023-02-15T14:33:55;6.00;99.90
5200;DHT22;2619;47.868;11.892;2023-02-15T14:36:23;6.00;99.90
5200;DHT22;2619;47.868;11.892;2023-02-15T14:42:21;5.70;99.90
5200;DHT22;2619;47.868;11.892;2023-02-15T14:45:28;5.50;99.90
5200;DHT22;2619;47.868;11.892;2023-02-15T14:48:09;5.40;99.90
5200;DHT22;2619;47.868;11.892;2023-02-15T14:50:42;5.30;99.90
5200;DHT22;2619;47.868;11.892;2023-02-15T14:55:40;5.10;99.90
5200;DHT22;2619;47.868;11.892;2023-02-15T14:58:11;5.10;99.90
5200;DHT22;2619;47.868;11.892;2023-02-15T15:00:40;5.00;99.90
5200;DHT22;2619;47.868;11.892;2023-02-15T15:03:23;4.90;99.90
5200;DHT22;2619;47.868;11.892;2023-02-15T15:05:54;4.90;99.90
5200;DHT22;2619;47.868;11.892;2023-02-15T15:08:34;4.80;99.90
5200;DHT22;2619;47.868;11.892;2023-02-15T15:14:01;4.60;99.90
5200;DHT22;2619;47.868;11.892;2023-02-15T15:19:10;4.40;99.90
5200;DHT22;2619;47.868;11.892;2023-02-15T15:41:40;3.80;99.90
5200;DHT22;2619;47.868;11.892;2023-02-15T15:46:50;3.70;99.90
5200;DHT22;2619;47.868;11.892;2023-02-15T15:49:21;3.60;99.90
5200;DHT22;2619;47.868;11.892;2023-02-15T15:51:47;3.50;99.90
5200;DHT22;2619;47.868;11.892;2023-02-15T15:54:19;3.50;99.90
5200;DHT22;2619;47.868;11.892;2023-02-15T15:56:52;3.40;99.90
5200;DHT22;2619;47.868;11.892;2023-02-15T15:59:30;3.40;99.90
5200;DHT22;2619;47.868;11.892;2023-02-15T16:02:04;3.30;99.90
5200;DHT22;2619;47.868;11.892;2023-02-15T16:04:32;3.30;99.90
5200;DHT22;2619;47.868;11.892;2023-02-15T16:12:33;3.10;99.90
5200;DHT22;2619;47.868;11.892;2023-02-15T16:15:04;3.10;99.90
5200;DHT22;2619;47.868;11.892;2023-02-15T16:17:37;3.10;99.90
5200;DHT22;2619;47.868;11.892;2023-02-15T16:20:16;2.90;99.90
5200;DHT22;2619;47.868;11.892;2023-02-15T16:22:45;3.00;99.90
5200;DHT22;2619;47.868;11.892;2023-02-15T16:27:47;2.80;99.90
5200;DHT22;2619;47.868;11.892;2023-02-15T16:30:23;2.60;99.90
5200;DHT22;2619;47.868;11.892;2023-02-15T16:32:53;2.40;99.90
5200;DHT22;2619;47.868;11.892;2023-02-15T16:35:20;2.30;99.90
5200;DHT22;2619;47.868;11.892;2023-02-15T16:37:46;2.10;99.90
5200;DHT22;2619;47.868;11.892;2023-02-15T16:40:30;2.10;99.90
5200;DHT22;2619;47.868;11.892;2023-02-15T16:43:02;2.00;99.90
5200;DHT22;2619;47.868;11.892;2023-02-15T16:45:30;1.90;99.90
5200;DHT22;2619;47.868;11.892;2023-02-15T16:47:59;1.80;99.90
5200;DHT22;2619;47.868;11.892;2023-02-15T16:50:33;1.70;99.90
5200;DHT22;2619;47.868;11.892;2023-02-15T16:52:59;1.70;99.90
5200;DHT22;2619;47.868;11.892;2023-02-15T16:55:31;1.40;99.90
5200;DHT22;2619;47.868;11.892;2023-02-15T16:58:02;1.30;99.90
5200;DHT22;2619;47.868;11.892;2023-02-15T17:00:32;1.20;99.90
5200;DHT22;2619;47.868;11.892;2023-02-15T17:05:32;1.00;99.90
5200;DHT22;2619;47.868;11.892;2023-02-15T17:10:45;0.90;99.90
5200;DHT22;2619;47.868;11.892;2023-02-15T17:13:14;0.90;99.90
5200;DHT22;2619;47.868;11.892;2023-02-15T17:15:43;0.90;99.90
5200;DHT22;2619;47.868;11.892;2023-02-15T17:18:20;0.80;99.90
5200;DHT22;2619;47.868;11.892;2023-02-15T17:20:48;0.80;99.90
5200;DHT22;2619;47.868;11.892;2023-02-15T17:23:42;0.80;99.90
5200;DHT22;2619;47.868;11.892;2023-02-15T17:26:19;0.90;99.90
5200;DHT22;2619;47.868;11.892;2023-02-15T17:28:48;0.60;99.90
5200;DHT22;2619;47.868;11.892;2023-02-15T17:31:16;0.50;99.90
5200;DHT22;2619;47.868;11.892;2023-02-15T17:33:42;0.60;99.90
5200;DHT22;2619;47.868;11.892;2023-02-15T17:36:18;0.40;99.90
5200;DHT22;2619;47.868;11.892;2023-02-15T17:39:00;0.20;99.90
5200;DHT22;2619;47.868;11.892;2023-02-15T17:41:29;0.10;99.90
5200;DHT22;2619;47.868;11.892;2023-02-15T17:43:55;0.00;99.90
5200;DHT22;2619;47.868;11.892;2023-02-15T17:46:20;0.00;99.90
5200;DHT22;2619;47.868;11.892;2023-02-15T17:48:52;-0.10;99.90
5200;DHT22;2619;47.868;11.892;2023-02-15T17:51:19;-0.10;99.90
5200;DHT22;2619;47.868;11.892;2023-02-15T17:53:46;0.10;99.90
5200;DHT22;2619;47.868;11.892;2023-02-15T17:56:33;0.10;99.90
5200;DHT22;2619;47.868;11.892;2023-02-15T17:58:59;-0.10;99.90
5200;DHT22;2619;47.868;11.892;2023-02-15T18:01:24;-0.20;99.90
5200;DHT22;2619;47.868;11.892;2023-02-15T18:04:11;-0.20;99.90
5200;DHT22;2619;47.868;11.892;2023-02-15T18:06:56;-0.30;99.90
5200;DHT22;2619;47.868;11.892;2023-02-15T18:09:40;-0.40;99.90
5200;DHT22;2619;47.868;11.892;2023-02-15T18:12:29;-0.30;99.90
5200;DHT22;2619;47.868;11.892;2023-02-15T18:14:57;-0.30;99.90
5200;DHT22;2619;47.868;11.892;2023-02-15T18:17:47;-0.20;99.90
5200;DHT22;2619;47.868;11.892;2023-02-15T18:20:25;-0.30;99.90
5200;DHT22;2619;47.868;11.892;2023-02-15T18:22:53;-0.50;99.90
5200;DHT22;2619;47.868;11.892;2023-02-15T18:25:20;-0.60;99.90
5200;DHT22;2619;47.868;11.892;2023-02-15T18:27:47;-0.50;99.90
5200;DHT22;2619;47.868;11.892;2023-02-15T18:30:19;-0.40;99.90
5200;DHT22;2619;47.868;11.892;2023-02-15T18:32:47;-0.50;99.90
5200;DHT22;2619;47.868;11.892;2023-02-15T18:35:16;-0.70;99.90
5200;DHT22;2619;47.868;11.892;2023-02-15T18:37:44;-0.80;99.90
5200;DHT22;2619;47.868;11.892;2023-02-15T18:40:18;-0.90;99.90
5200;DHT22;2619;47.868;11.892;2023-02-15T18:42:44;-0.90;99.90
5200;DHT22;2619;47.868;11.892;2023-02-15T18:45:19;-0.90;99.90
5200;DHT22;2619;47.868;11.892;2023-02-15T18:47:46;-0.90;99.90
5200;DHT22;2619;47.868;11.892;2023-02-15T18:50:14;-0.90;99.90
5200;DHT22;2619;47.868;11.892;2023-02-15T18:52:39;-0.80;99.90
5200;DHT22;2619;47.868;11.892;2023-02-15T18:55:20;-0.70;99.90